Aérodrome :
LOGIN :

S'inscrire | Disclaimer

   EN    FR    IT 

 










Légende :    VFR   VFR Marginal   IFR   IFR Intensif   IFR Très Intensif
Visi : 
Plafond : 
>= 8 km
>= 3000ft
5 à 8 km
1000 à 3000 ft
1500m à 5 km
500 à 1000 ft
800 à 1500m
200 à 500 ft
< 800m
< 200 ft
Symboles :   Orages  Brouillard  Fortes neiges  Fortes précipitations  Vent > 20 kt
SIGMETs :   Divers  Orages  Givrage  Turbulence  Onde Orograph.  Cendres Volcan.






- Altitude de l'aérodrome : 124 ft
- Code IATA : AVN


LFMV - Avignon Caumont

DERNIER METAR :
  • 101130Z AUTO 16009KT 130V200 CAVOK 32/15 Q1014 NOSIG

METARs EXPIRÉS :
  • 101100Z AUTO 18007KT 110V210 CAVOK 32/14 Q1014 NOSIG
  • 101030Z AUTO 20006KT 150V240 CAVOK 31/16 Q1014 NOSIG
  • 101000Z AUTO 24008KT 210V270 CAVOK 29/18 Q1015 NOSIG
  • 100930Z AUTO 18008KT 110V250 CAVOK 31/17 Q1015 NOSIG
  • 100900Z AUTO 21005KT 160V250 CAVOK 30/15 Q1015 NOSIG

TAF TAF LFMV
Valide du 10 à 09h jusqu'au 11 à 09h UTC


100800Z 1009/1109 18010KT CAVOK
BECMG 1019/1021 VRB02KT
PROB40
TEMPO 1102/1106 4000 BR
ATIS : +33 4 90 84 32 84



MET'MAP, la Météo Aéronautique d'un coup d'oeil ! - Copyright ORBIFLY Décembre 2007 - Disclaimer

ORBIFLY MET'MAP TEAM :

Programmation & Développement : Alexandra Zaïnal
Sur une idée originale de : Baudouin d'Aumeries
Assistance à la programmation : Marc-Olivier Méhu
Soutien technique & logistique : Manuel Goepfert

Contact : metmap@orbifly.com




SOURCES & CREDITS :

   NOAA